createdAt,value
2022-12-18T00:01:24.870Z,15.45
2022-12-18T00:03:52.839Z,15.41
2022-12-18T00:06:19.936Z,15.37
2022-12-18T00:08:46.622Z,15.40
2022-12-18T00:11:15.537Z,15.34
2022-12-18T00:13:42.848Z,15.31
2022-12-18T00:16:20.900Z,15.30
2022-12-18T00:18:48.831Z,15.33
2022-12-18T00:21:15.600Z,15.35
2022-12-18T00:23:43.722Z,15.38
2022-12-18T00:26:19.130Z,15.29
2022-12-18T00:28:46.739Z,15.25
2022-12-18T00:31:17.056Z,15.28
2022-12-18T00:33:43.886Z,15.23
2022-12-18T00:36:21.637Z,15.31
2022-12-18T00:38:48.747Z,15.26
2022-12-18T00:41:39.732Z,15.26
2022-12-18T00:44:08.451Z,15.24
2022-12-18T00:46:35.146Z,15.23
2022-12-18T00:49:01.939Z,15.18
2022-12-18T00:51:28.524Z,15.14
2022-12-18T00:53:55.076Z,15.25
2022-12-18T00:56:23.317Z,15.24
2022-12-18T00:58:50.067Z,15.17
2022-12-18T01:01:17.706Z,15.18
2022-12-18T01:03:46.123Z,15.16
2022-12-18T01:06:13.681Z,15.11
2022-12-18T01:08:40.378Z,15.11
2022-12-18T01:11:14.756Z,15.15
2022-12-18T01:13:41.787Z,15.07
2022-12-18T01:16:09.920Z,15.06
2022-12-18T01:18:36.893Z,15.05
2022-12-18T01:21:10.755Z,15.12
2022-12-18T01:23:37.776Z,15.09
2022-12-18T01:26:12.888Z,15.08
2022-12-18T01:28:39.714Z,15.06
2022-12-18T01:31:19.529Z,15.06
2022-12-18T01:33:46.403Z,15.00
2022-12-18T01:36:33.011Z,15.05
2022-12-18T01:39:07.863Z,15.04
2022-12-18T01:41:53.937Z,15.04
2022-12-18T01:44:48.496Z,15.06
2022-12-18T01:47:29.744Z,14.99
2022-12-18T01:49:57.328Z,14.99
2022-12-18T01:52:26.146Z,15.00
2022-12-18T01:54:52.854Z,14.98
2022-12-18T01:57:19.844Z,14.98
2022-12-18T01:59:49.223Z,14.98
2022-12-18T02:02:17.147Z,14.94
2022-12-18T02:04:49.188Z,14.96
2022-12-18T02:07:39.328Z,14.98
2022-12-18T02:10:32.837Z,14.92
2022-12-18T02:13:22.755Z,14.93
2022-12-18T02:15:55.246Z,14.86
2022-12-18T02:18:36.947Z,14.89
2022-12-18T02:21:28.361Z,14.93
2022-12-18T02:24:00.767Z,14.83
2022-12-18T02:26:36.398Z,14.85
2022-12-18T02:29:19.139Z,14.88
2022-12-18T02:31:53.873Z,14.86
2022-12-18T02:34:23.423Z,14.80
2022-12-18T02:36:50.874Z,14.79
2022-12-18T02:39:18.242Z,14.81
2022-12-18T02:41:44.767Z,14.78
2022-12-18T02:44:13.418Z,14.75
2022-12-18T02:47:06.336Z,14.77
2022-12-18T02:49:41.699Z,14.72
2022-12-18T02:52:37.187Z,14.72
2022-12-18T02:55:18.872Z,14.73
2022-12-18T02:58:07.800Z,14.72
2022-12-18T03:00:42.666Z,14.66
2022-12-18T03:03:15.851Z,14.72
2022-12-18T03:05:51.635Z,14.71
2022-12-18T03:08:28.554Z,14.69
2022-12-18T03:10:57.026Z,14.67
2022-12-18T03:13:37.432Z,14.68
2022-12-18T03:16:07.215Z,14.66
2022-12-18T03:18:56.267Z,14.68
2022-12-18T03:21:29.731Z,14.63
2022-12-18T03:23:56.937Z,14.53
2022-12-18T03:26:25.786Z,14.67
2022-12-18T03:29:05.917Z,14.60
2022-12-18T03:31:33.851Z,14.57
2022-12-18T03:34:03.248Z,14.61
2022-12-18T03:36:31.157Z,14.54
2022-12-18T03:38:59.067Z,14.54
2022-12-18T03:41:29.762Z,14.54
2022-12-18T03:44:20.213Z,14.59
2022-12-18T03:46:46.674Z,14.57
2022-12-18T03:49:18.726Z,14.54
2022-12-18T03:51:59.677Z,14.52
2022-12-18T03:54:26.974Z,14.57
2022-12-18T03:57:00.198Z,14.56
2022-12-18T03:59:27.842Z,14.59
2022-12-18T04:01:55.835Z,14.52
2022-12-18T04:04:22.891Z,14.57
2022-12-18T04:06:50.664Z,14.49
2022-12-18T04:09:17.310Z,14.56
2022-12-18T04:11:46.912Z,14.49
2022-12-18T04:14:17.594Z,14.52
2022-12-18T04:16:44.650Z,14.45
2022-12-18T04:19:11.213Z,14.53
2022-12-18T04:21:38.125Z,14.47
2022-12-18T04:24:04.897Z,14.45
2022-12-18T04:26:31.414Z,14.46
2022-12-18T04:28:57.951Z,14.47
2022-12-18T04:31:24.484Z,14.48
2022-12-18T04:33:51.024Z,14.53
2022-12-18T04:36:17.576Z,14.49
2022-12-18T04:38:44.135Z,14.42
2022-12-18T04:41:10.658Z,14.44
2022-12-18T04:43:37.462Z,14.43
2022-12-18T04:46:08.565Z,14.47
2022-12-18T04:48:36.018Z,14.46
2022-12-18T04:51:02.597Z,14.42
2022-12-18T04:53:29.159Z,14.28
2022-12-18T04:56:12.449Z,14.29
2022-12-18T04:58:40.120Z,14.28
2022-12-18T05:01:07.125Z,14.28
2022-12-18T05:03:33.751Z,14.27
2022-12-18T05:06:00.425Z,14.37
2022-12-18T05:08:27.251Z,14.42
2022-12-18T05:11:04.385Z,14.39
2022-12-18T05:13:32.564Z,14.39
2022-12-18T05:15:59.118Z,14.27
2022-12-18T05:18:26.003Z,14.28
2022-12-18T05:20:53.866Z,14.24
2022-12-18T05:23:21.211Z,14.17
2022-12-18T05:25:52.141Z,14.24
2022-12-18T05:28:18.823Z,14.15
2022-12-18T05:30:52.840Z,14.25
2022-12-18T05:33:20.310Z,14.35
2022-12-18T05:35:58.344Z,14.30
2022-12-18T05:38:26.559Z,14.26
2022-12-18T05:40:53.637Z,14.30
2022-12-18T05:43:21.595Z,14.31
2022-12-18T05:45:48.885Z,14.30
2022-12-18T05:48:15.866Z,14.22
2022-12-18T05:50:44.894Z,14.18
2022-12-18T05:53:11.643Z,14.17
2022-12-18T05:55:39.718Z,14.27
2022-12-18T05:58:07.167Z,14.17
2022-12-18T06:00:35.778Z,14.19
2022-12-18T06:03:02.645Z,14.24
2022-12-18T06:05:29.232Z,14.21
2022-12-18T06:07:55.760Z,14.19
2022-12-18T06:10:22.278Z,14.22
2022-12-18T06:12:48.807Z,14.18
2022-12-18T06:15:15.330Z,14.16
2022-12-18T06:17:43.507Z,14.25
2022-12-18T06:20:10.434Z,14.26
2022-12-18T06:22:37.081Z,14.20
2022-12-18T06:25:04.102Z,14.14
2022-12-18T06:27:31.015Z,14.14
2022-12-18T06:29:57.559Z,14.16
2022-12-18T06:32:24.078Z,14.11
2022-12-18T06:34:50.662Z,14.17
2022-12-18T06:37:17.183Z,14.13
2022-12-18T06:39:43.887Z,14.20
2022-12-18T06:42:10.447Z,14.07
2022-12-18T06:44:36.974Z,14.20
2022-12-18T06:47:03.666Z,14.17
2022-12-18T06:49:30.743Z,14.05
2022-12-18T06:51:57.390Z,14.08
2022-12-18T06:54:23.905Z,14.08
2022-12-18T06:56:50.550Z,14.07
2022-12-18T06:59:17.728Z,14.10
2022-12-18T07:01:44.459Z,14.04
2022-12-18T07:04:11.092Z,14.18
2022-12-18T07:06:37.628Z,14.27
2022-12-18T07:09:04.200Z,14.36
2022-12-18T07:11:30.800Z,14.27
2022-12-18T07:13:57.360Z,14.08
2022-12-18T07:16:25.730Z,14.13
2022-12-18T07:18:53.644Z,14.12
2022-12-18T07:21:20.705Z,14.31
2022-12-18T07:23:49.044Z,14.47
2022-12-18T07:26:17.856Z,14.63
2022-12-18T07:28:44.835Z,14.78
2022-12-18T07:31:15.583Z,14.85
2022-12-18T07:33:42.684Z,14.98
2022-12-18T07:36:10.791Z,15.04
2022-12-18T07:38:37.848Z,15.10
2022-12-18T07:41:06.548Z,15.20
2022-12-18T07:43:33.841Z,15.17
2022-12-18T07:46:00.705Z,15.22
2022-12-18T07:48:27.395Z,15.27
2022-12-18T07:50:53.921Z,15.24
2022-12-18T07:53:20.530Z,15.30
2022-12-18T07:56:18.342Z,15.38
2022-12-18T07:58:35.415Z,15.40
2022-12-18T08:01:06.529Z,15.41
2022-12-18T08:03:33.317Z,15.43
2022-12-18T08:06:04.542Z,15.53
2022-12-18T08:08:31.530Z,15.54
2022-12-18T08:10:58.543Z,15.56
2022-12-18T08:13:25.136Z,15.64
2022-12-18T08:16:05.815Z,15.70
2022-12-18T08:18:34.103Z,15.69
2022-12-18T08:21:10.468Z,15.73
2022-12-18T08:23:42.571Z,15.73
2022-12-18T08:26:10.264Z,15.82
2022-12-18T08:28:36.864Z,15.90
2022-12-18T08:31:03.663Z,15.92
2022-12-18T08:33:30.511Z,15.94
2022-12-18T08:35:57.063Z,16.00
2022-12-18T08:38:24.227Z,16.01
2022-12-18T08:40:50.776Z,16.05
2022-12-18T08:43:35.761Z,16.03
2022-12-18T08:46:02.329Z,16.08
2022-12-18T08:48:28.913Z,16.13
2022-12-18T08:50:59.644Z,16.09
2022-12-18T08:53:29.258Z,16.11
2022-12-18T08:55:59.275Z,16.13
2022-12-18T08:58:25.809Z,16.18
2022-12-18T09:00:52.426Z,16.14
2022-12-18T09:03:19.727Z,16.16
2022-12-18T09:05:49.727Z,16.18
2022-12-18T09:08:16.425Z,16.20
2022-12-18T09:10:44.849Z,16.22
2022-12-18T09:13:12.854Z,16.21
2022-12-18T09:15:50.722Z,16.25
2022-12-18T09:18:18.567Z,16.21
2022-12-18T09:20:45.458Z,16.17
2022-12-18T09:23:12.496Z,16.16
2022-12-18T09:25:39.354Z,16.20
2022-12-18T09:28:10.623Z,16.17
2022-12-18T09:30:45.317Z,16.13
2022-12-18T09:33:12.033Z,16.06
2022-12-18T09:35:39.883Z,16.03
2022-12-18T09:38:40.761Z,15.98
2022-12-18T09:41:24.708Z,15.94
2022-12-18T09:43:55.334Z,15.97
2022-12-18T09:46:29.179Z,16.04
2022-12-18T09:48:59.219Z,16.04
2022-12-18T09:51:31.747Z,16.11
2022-12-18T09:54:03.000Z,16.07
2022-12-18T09:56:33.110Z,16.13
2022-12-18T09:59:01.309Z,16.18
2022-12-18T10:01:38.772Z,16.20
2022-12-18T10:04:10.008Z,16.28
2022-12-18T10:06:55.217Z,16.28
2022-12-18T10:09:45.957Z,16.43
2022-12-18T10:12:18.351Z,16.47
2022-12-18T10:15:17.059Z,16.58
2022-12-18T10:18:07.530Z,16.60
2022-12-18T10:20:48.459Z,16.60
2022-12-18T10:23:23.883Z,16.57
2022-12-18T10:25:59.083Z,16.50
2022-12-18T10:28:25.881Z,16.56
2022-12-18T10:30:52.606Z,16.60
2022-12-18T10:33:24.147Z,16.61
2022-12-18T10:35:53.592Z,16.55
2022-12-18T10:38:20.254Z,16.69
2022-12-18T10:40:55.616Z,16.67
2022-12-18T10:43:32.503Z,16.71
2022-12-18T10:46:11.065Z,16.70
2022-12-18T10:48:54.929Z,16.70
2022-12-18T10:51:34.764Z,16.73
2022-12-18T10:54:23.160Z,16.78
2022-12-18T10:56:49.872Z,16.77
2022-12-18T10:59:18.291Z,16.78
2022-12-18T11:01:59.008Z,16.80
2022-12-18T11:04:27.865Z,16.75
2022-12-18T11:06:58.498Z,16.72
2022-12-18T11:09:30.875Z,16.65
2022-12-18T11:12:00.231Z,16.60
2022-12-18T11:14:46.565Z,16.59
2022-12-18T11:17:30.160Z,16.59
2022-12-18T11:20:01.528Z,16.61
2022-12-18T11:22:30.570Z,16.50
2022-12-18T11:25:36.034Z,16.55
2022-12-18T11:28:28.983Z,16.67
2022-12-18T11:31:10.792Z,16.71
2022-12-18T11:33:38.668Z,16.73
2022-12-18T11:36:06.542Z,16.78
2022-12-18T11:38:42.100Z,16.80
2022-12-18T11:41:46.128Z,16.82
2022-12-18T11:44:18.059Z,16.82
2022-12-18T11:47:05.050Z,16.88
2022-12-18T11:49:35.762Z,16.85
2022-12-18T11:52:22.465Z,16.95
2022-12-18T11:54:52.728Z,16.92
2022-12-18T11:57:43.863Z,16.94
2022-12-18T12:00:13.908Z,16.93
2022-12-18T12:03:06.250Z,16.82
2022-12-18T12:06:12.430Z,16.77
2022-12-18T12:09:20.223Z,16.67
2022-12-18T12:11:52.857Z,16.65
2022-12-18T12:14:22.055Z,16.60
2022-12-18T12:16:52.904Z,16.72
2022-12-18T12:19:37.651Z,16.70
2022-12-18T12:22:16.168Z,16.83
2022-12-18T12:25:04.775Z,16.86
2022-12-18T12:27:54.437Z,16.98
2022-12-18T12:30:45.410Z,16.99
2022-12-18T12:33:47.267Z,17.04
2022-12-18T12:36:28.850Z,17.04
2022-12-18T12:38:58.908Z,17.12
2022-12-18T12:41:51.009Z,17.11
2022-12-18T12:44:24.490Z,17.11
2022-12-18T12:46:52.153Z,17.13
2022-12-18T12:49:23.242Z,17.17
2022-12-18T12:52:07.378Z,17.22
2022-12-18T12:54:35.584Z,17.22
2022-12-18T12:57:37.483Z,17.15
2022-12-18T13:00:06.423Z,17.11
2022-12-18T13:02:57.656Z,17.07
2022-12-18T13:05:24.480Z,17.07
2022-12-18T13:07:58.629Z,17.10
2022-12-18T13:10:32.435Z,17.15
2022-12-18T13:12:58.985Z,17.16
2022-12-18T13:15:40.651Z,17.18
2022-12-18T13:18:10.224Z,17.27
2022-12-18T13:20:46.578Z,17.27
2022-12-18T13:23:52.102Z,17.37
2022-12-18T13:26:23.371Z,17.40
2022-12-18T13:28:57.404Z,17.42
2022-12-18T13:31:42.569Z,17.40
2022-12-18T13:34:27.448Z,17.42
2022-12-18T13:36:56.329Z,17.43
2022-12-18T13:39:30.087Z,17.47
2022-12-18T13:42:08.898Z,17.40
2022-12-18T13:44:42.238Z,17.37
2022-12-18T13:47:33.886Z,17.39
2022-12-18T13:50:01.711Z,17.26
2022-12-18T13:52:38.122Z,17.29
2022-12-18T13:55:07.613Z,17.27
2022-12-18T13:57:39.725Z,17.35
2022-12-18T14:00:29.472Z,17.28
2022-12-18T14:02:58.503Z,17.28
2022-12-18T14:05:35.283Z,17.34
2022-12-18T14:08:09.644Z,17.28
2022-12-18T14:10:49.137Z,17.29
2022-12-18T14:13:37.262Z,17.34
2022-12-18T14:16:05.899Z,17.32
2022-12-18T14:18:49.627Z,17.28
2022-12-18T14:21:22.924Z,17.24
2022-12-18T14:23:49.692Z,17.24
2022-12-18T14:26:30.872Z,17.28
2022-12-18T14:28:58.498Z,17.32
2022-12-18T14:31:27.069Z,17.23
2022-12-18T14:33:54.288Z,17.23
2022-12-18T14:36:30.251Z,17.20
2022-12-18T14:38:59.031Z,17.20
2022-12-18T14:41:26.411Z,17.21
2022-12-18T14:43:54.950Z,17.23
2022-12-18T14:46:36.377Z,17.24
2022-12-18T14:49:05.613Z,17.21
2022-12-18T14:51:34.239Z,17.23
2022-12-18T14:54:09.169Z,17.36
2022-12-18T14:56:37.439Z,17.41
2022-12-18T14:59:19.241Z,17.49
2022-12-18T15:01:59.225Z,17.56
2022-12-18T15:04:36.116Z,17.63
2022-12-18T15:07:16.984Z,17.62
2022-12-18T15:09:45.885Z,17.64
2022-12-18T15:12:43.951Z,17.66
2022-12-18T15:15:38.483Z,17.68
2022-12-18T15:18:13.947Z,17.76
2022-12-18T15:20:43.162Z,17.75
2022-12-18T15:23:21.576Z,17.75
2022-12-18T15:25:49.762Z,17.72
2022-12-18T15:28:40.566Z,17.67
2022-12-18T15:31:31.544Z,17.67
2022-12-18T15:33:59.999Z,17.62
2022-12-18T15:36:27.145Z,17.72
2022-12-18T15:38:56.795Z,17.74
2022-12-18T15:41:34.138Z,17.77
2022-12-18T15:44:03.010Z,17.80
2022-12-18T15:46:31.762Z,17.82
2022-12-18T15:49:02.102Z,17.88
2022-12-18T15:51:39.355Z,17.87
2022-12-18T15:54:12.166Z,17.88
2022-12-18T15:56:57.049Z,17.89
2022-12-18T15:59:24.662Z,17.97
2022-12-18T16:01:52.374Z,17.99
2022-12-18T16:04:21.597Z,18.03
2022-12-18T16:07:13.854Z,18.03
2022-12-18T16:09:35.317Z,18.01
2022-12-18T16:12:01.886Z,17.96
2022-12-18T16:14:30.640Z,17.90
2022-12-18T16:16:59.743Z,17.90
2022-12-18T16:19:26.859Z,17.89
2022-12-18T16:21:55.643Z,17.88
2022-12-18T16:24:24.219Z,17.83
2022-12-18T16:26:52.488Z,17.80
2022-12-18T16:29:20.115Z,17.85
2022-12-18T16:31:46.655Z,17.83
2022-12-18T16:34:23.448Z,17.83
2022-12-18T16:36:54.288Z,17.83
2022-12-18T16:39:21.443Z,17.80
2022-12-18T16:41:48.032Z,17.85
2022-12-18T16:44:15.116Z,17.84
2022-12-18T16:46:46.342Z,17.88
2022-12-18T16:49:14.386Z,17.88
2022-12-18T16:51:41.336Z,17.75
2022-12-18T16:54:10.994Z,17.79
2022-12-18T16:56:40.103Z,17.73
2022-12-18T16:59:06.862Z,17.72
2022-12-18T17:01:33.760Z,17.67
2022-12-18T17:04:03.343Z,17.63
2022-12-18T17:06:32.118Z,17.59
2022-12-18T17:09:03.914Z,17.55
2022-12-18T17:11:32.356Z,17.63
2022-12-18T17:13:59.091Z,17.56
2022-12-18T17:16:26.620Z,17.60
2022-12-18T17:18:53.741Z,17.65
2022-12-18T17:21:20.292Z,17.68
2022-12-18T17:23:46.840Z,17.68
2022-12-18T17:26:13.651Z,17.61
2022-12-18T17:28:41.186Z,17.56
2022-12-18T17:31:28.149Z,17.54
2022-12-18T17:33:55.072Z,17.52
2022-12-18T17:36:22.250Z,17.52
2022-12-18T17:38:53.147Z,17.47
2022-12-18T17:41:19.739Z,17.47
2022-12-18T17:43:54.540Z,17.49
2022-12-18T17:46:21.492Z,17.48
2022-12-18T17:48:48.246Z,17.46
2022-12-18T17:51:16.437Z,17.56
2022-12-18T17:53:43.562Z,17.59
2022-12-18T17:56:13.532Z,17.62
2022-12-18T17:58:40.406Z,17.60
2022-12-18T18:01:07.746Z,17.55
2022-12-18T18:03:37.469Z,17.60
2022-12-18T18:06:05.171Z,17.57
2022-12-18T18:08:34.512Z,17.61
2022-12-18T18:11:26.967Z,17.55
2022-12-18T18:14:02.794Z,17.56
2022-12-18T18:16:35.595Z,17.61
2022-12-18T18:19:04.903Z,17.58
2022-12-18T18:21:31.975Z,17.60
2022-12-18T18:24:03.136Z,17.60
2022-12-18T18:26:31.997Z,17.62
2022-12-18T18:28:59.897Z,17.61
2022-12-18T18:31:29.624Z,17.66
2022-12-18T18:33:56.659Z,17.74
2022-12-18T18:36:23.835Z,17.79
2022-12-18T18:38:51.240Z,17.89
2022-12-18T18:41:18.206Z,17.80
2022-12-18T18:43:45.320Z,17.82
2022-12-18T18:46:14.398Z,17.91
2022-12-18T18:48:43.702Z,17.86
2022-12-18T18:51:17.768Z,17.85
2022-12-18T18:53:48.824Z,17.83
2022-12-18T18:56:45.580Z,17.79
2022-12-18T18:59:04.718Z,17.91
2022-12-18T19:01:31.378Z,17.89
2022-12-18T19:03:58.023Z,17.91
2022-12-18T19:06:27.623Z,17.89
2022-12-18T19:08:56.224Z,17.87
2022-12-18T19:11:43.474Z,17.94
2022-12-18T19:14:12.179Z,17.89
2022-12-18T19:16:39.055Z,17.83
2022-12-18T19:19:05.895Z,17.79
2022-12-18T19:21:34.228Z,17.77
2022-12-18T19:24:02.421Z,17.78
2022-12-18T19:26:29.135Z,17.79
2022-12-18T19:29:03.742Z,17.84
2022-12-18T19:31:35.212Z,17.87
2022-12-18T19:34:02.914Z,17.91
2022-12-18T19:36:30.731Z,17.86
2022-12-18T19:38:59.895Z,17.88
2022-12-18T19:41:28.991Z,17.90
2022-12-18T19:43:55.763Z,17.86
2022-12-18T19:46:23.358Z,17.76
2022-12-18T19:48:50.460Z,17.70
2022-12-18T19:51:19.858Z,17.76
2022-12-18T19:53:46.675Z,17.74
2022-12-18T19:56:16.230Z,17.79
2022-12-18T19:58:43.828Z,17.76
2022-12-18T20:01:11.090Z,17.86
2022-12-18T20:03:40.485Z,17.89
2022-12-18T20:06:15.780Z,17.96
2022-12-18T20:08:42.348Z,17.94
2022-12-18T20:11:08.867Z,17.93
2022-12-18T20:13:35.779Z,17.90
2022-12-18T20:16:02.714Z,17.88
2022-12-18T20:18:29.279Z,17.79
2022-12-18T20:20:56.425Z,17.72
2022-12-18T20:23:25.060Z,17.70
2022-12-18T20:25:55.448Z,17.62
2022-12-18T20:28:23.172Z,17.66
2022-12-18T20:30:50.029Z,17.54
2022-12-18T20:33:16.738Z,17.47
2022-12-18T20:35:43.247Z,17.44
2022-12-18T20:38:10.552Z,17.53
2022-12-18T20:40:41.496Z,17.51
2022-12-18T20:43:11.299Z,17.49
2022-12-18T20:45:40.500Z,17.43
2022-12-18T20:48:09.325Z,17.50
2022-12-18T20:50:35.866Z,17.28
2022-12-18T20:53:02.383Z,17.29
2022-12-18T20:55:29.000Z,17.27
2022-12-18T20:57:55.569Z,17.30
2022-12-18T21:00:22.493Z,17.30
2022-12-18T21:02:49.096Z,17.28
2022-12-18T21:05:15.772Z,17.21
2022-12-18T21:07:42.307Z,17.14
2022-12-18T21:10:09.266Z,17.08
2022-12-18T21:12:48.154Z,16.97
2022-12-18T21:15:28.803Z,17.09
2022-12-18T21:17:55.640Z,17.09
2022-12-18T21:20:22.419Z,17.02
2022-12-18T21:22:49.492Z,17.04
2022-12-18T21:25:16.099Z,16.93
2022-12-18T21:27:42.656Z,17.01
2022-12-18T21:30:09.506Z,16.98
2022-12-18T21:32:36.195Z,16.93
2022-12-18T21:35:02.744Z,16.95
2022-12-18T21:37:29.260Z,16.97
2022-12-18T21:39:55.799Z,16.91
2022-12-18T21:42:40.832Z,16.95
2022-12-18T21:45:07.790Z,16.86
2022-12-18T21:47:34.350Z,16.79
2022-12-18T21:50:00.880Z,16.79
2022-12-18T21:52:31.440Z,16.73
2022-12-18T21:55:09.005Z,16.75
2022-12-18T21:57:38.072Z,16.74
2022-12-18T22:00:05.980Z,16.74
2022-12-18T22:02:32.658Z,16.77
2022-12-18T22:04:59.339Z,16.72
2022-12-18T22:07:26.620Z,16.71
2022-12-18T22:09:53.167Z,16.64
2022-12-18T22:12:35.303Z,16.54
2022-12-18T22:15:04.319Z,16.66
2022-12-18T22:17:30.963Z,16.58
2022-12-18T22:19:57.519Z,16.60
2022-12-18T22:22:24.192Z,16.59
2022-12-18T22:24:50.756Z,16.58
2022-12-18T22:27:17.279Z,16.57
2022-12-18T22:30:02.509Z,16.58
2022-12-18T22:32:31.211Z,16.56
2022-12-18T22:35:06.244Z,16.59
2022-12-18T22:37:33.826Z,16.53
2022-12-18T22:40:02.988Z,16.62
2022-12-18T22:42:31.018Z,16.61
2022-12-18T22:44:57.568Z,16.57
2022-12-18T22:47:29.262Z,16.53
2022-12-18T22:49:56.494Z,16.46
2022-12-18T22:52:24.744Z,16.45
2022-12-18T22:54:53.579Z,16.46
2022-12-18T22:57:21.640Z,16.43
2022-12-18T22:59:49.143Z,16.46
2022-12-18T23:02:15.844Z,16.44
2022-12-18T23:04:42.461Z,16.36
2022-12-18T23:07:09.045Z,16.39
2022-12-18T23:09:37.795Z,16.34
2022-12-18T23:12:04.661Z,16.34
2022-12-18T23:14:31.851Z,16.29
2022-12-18T23:16:58.406Z,16.33
2022-12-18T23:19:25.333Z,16.32
2022-12-18T23:21:51.915Z,16.33
2022-12-18T23:24:21.065Z,16.25
2022-12-18T23:26:47.578Z,16.27
2022-12-18T23:29:14.149Z,16.25
2022-12-18T23:31:40.772Z,16.21
2022-12-18T23:34:07.645Z,16.29
2022-12-18T23:36:45.266Z,16.21
2022-12-18T23:39:19.263Z,16.22
2022-12-18T23:41:57.014Z,16.23
2022-12-18T23:44:23.593Z,16.22
2022-12-18T23:46:50.380Z,16.20
2022-12-18T23:49:16.991Z,16.23
2022-12-18T23:51:43.632Z,16.15
2022-12-18T23:54:10.631Z,16.13
2022-12-18T23:56:37.226Z,16.11
2022-12-18T23:59:03.780Z,16.12
